The Eastern Iowa Airport
KCID : now visible

Airfield :











YOU CAN JOIN US ON...

 
LOGIN :

Register | Disclaimer

   EN    FR    IT 

 









Legend :    VFR   Marginal VFR   IFR   Intensive IFR   Very Intensive IFR
Visi :
Ceiling :
>= 8 km
>= 3000ft
5 to 8 km
1000 to 3000 ft
1500m to 5 km
500 to 1000 ft
800 to 1500m
200 to 500 ft
< 800m
< 200 ft
Symbols :   Thunderstorms  Fog  Heavy snow  Heavy precipitations  Wind > 20 kt






- Airport Elevation : 869 ft
- IATA code : CID


KCID - The Eastern Iowa

CURRENT METAR :
  • 231352Z 19006KT 6SM BR CLR M01/M02 A2994 RMK AO2 SLP148 T10111017

EXPIRED METARs :
  • 231252Z 18004KT 8SM CLR M01/M02 A2993 RMK AO2 SLP141 T10111022
  • 231152Z 22003KT 9SM CLR M01/M02 A2993 RMK AO2 SLP142 T10061022 10017 21006 53005

TAF KCID
Valid from the 23 at 12:00 until the 24 at 12:00 UTC


231120Z 2312/2412 20007KT P6SM SKC
FM231500 26005KT P6SM FEW200
FM231900 30007KT P6SM FEW100
FM240600 01006KT P6SM BKN100



MET'MAP, your aeronautical weather chart ! - Copyright ORBIFLY December 2007 - Disclaimer

ORBIFLY MET'MAP TEAM :

Programming & Development : Alexandra Zaïnal
Concept & original design : Baudouin d'Aumeries
Assistance for programming : Marc-Olivier Méhu
Technical & hardware support : Manuel Goepfert

Contact : metmap@orbifly.com




SOURCES & CREDITS :

   NOAA       Earth
Advisory